createdAt,value
2022-10-19T00:04:51.208Z,0.1
2022-10-19T00:09:48.955Z,0.2
2022-10-19T00:14:48.862Z,0.2
2022-10-19T00:30:01.489Z,0.2
2022-10-19T00:35:05.663Z,0.2
2022-10-19T00:40:54.025Z,0.1
2022-10-19T00:44:57.858Z,0.1
2022-10-19T00:49:49.372Z,0.2
2022-10-19T00:54:51.191Z,0.2
2022-10-19T00:59:48.874Z,0.2
2022-10-19T01:04:48.888Z,0.2
2022-10-19T01:09:48.935Z,0.1
2022-10-19T01:14:48.939Z,0.2
2022-10-19T01:19:48.907Z,0.2
2022-10-19T01:29:48.933Z,0.2
2022-10-19T01:34:48.912Z,0.2
2022-10-19T01:39:51.911Z,0.2
2022-10-19T01:44:48.946Z,0.2
2022-10-19T01:49:48.939Z,0.2
2022-10-19T01:54:49.022Z,0.2
2022-10-19T01:59:48.937Z,0.2
2022-10-19T02:04:48.989Z,0.1
2022-10-19T02:09:48.955Z,0.1
2022-10-19T02:14:48.975Z,0.2
2022-10-19T02:19:48.926Z,0.1
2022-10-19T02:24:48.883Z,0.1
2022-10-19T02:29:48.878Z,0.1
2022-10-19T02:34:48.992Z,0.2
2022-10-19T02:39:48.975Z,0.1
2022-10-19T02:44:50.577Z,0.2
2022-10-19T02:49:49.009Z,0.1
2022-10-19T02:54:48.976Z,0.2
2022-10-19T02:59:49.990Z,0.2
2022-10-19T03:04:49.039Z,0.2
2022-10-19T03:09:49.037Z,0.2
2022-10-19T03:14:49.187Z,0.2
2022-10-19T03:19:48.926Z,0.2
2022-10-19T03:24:48.928Z,0.2
2022-10-19T03:29:48.906Z,0.2
2022-10-19T03:34:48.933Z,0.2
2022-10-19T03:39:48.859Z,0.2
2022-10-19T03:44:48.899Z,0.2
2022-10-19T03:49:48.874Z,0.2
2022-10-19T03:54:48.909Z,0.2
2022-10-19T03:59:48.894Z,0.1
2022-10-19T04:04:48.894Z,0.2
2022-10-19T04:09:48.980Z,0.2
2022-10-19T04:14:57.122Z,0.2
2022-10-19T04:19:48.872Z,0.2
2022-10-19T04:24:48.884Z,0.2
2022-10-19T04:29:48.922Z,0.1
2022-10-19T04:34:48.893Z,0.2
2022-10-19T04:39:49.052Z,0.2
2022-10-19T04:44:48.944Z,0.1
2022-10-19T04:49:48.905Z,0.2
2022-10-19T04:54:48.894Z,0.1
2022-10-19T05:00:19.793Z,0.2
2022-10-19T05:04:48.864Z,0.2
2022-10-19T05:09:48.887Z,0.2
2022-10-19T05:14:48.895Z,0.2
2022-10-19T05:19:48.921Z,0.2
2022-10-19T05:24:49.010Z,0.2
2022-10-19T05:29:48.950Z,0.1
2022-10-19T05:34:48.892Z,0.2
2022-10-19T05:39:48.914Z,0.2
2022-10-19T05:44:49.070Z,0.3
2022-10-19T05:49:48.876Z,0.3
2022-10-19T05:54:49.335Z,0.4
2022-10-19T05:59:48.924Z,0.3
2022-10-19T06:04:48.900Z,0.4
2022-10-19T06:09:48.918Z,0.5
2022-10-19T06:14:48.944Z,0.6
2022-10-19T06:19:48.912Z,0.5
2022-10-19T06:24:48.947Z,0.6
2022-10-19T06:29:48.932Z,0.9
2022-10-19T06:34:50.044Z,0.8
2022-10-19T06:39:48.944Z,0.8
2022-10-19T06:44:48.889Z,0.1
2022-10-19T06:49:48.962Z,0.9
2022-10-19T06:54:48.967Z,0.12
2022-10-19T06:59:52.958Z,0.11
2022-10-19T07:04:48.924Z,0.13
2022-10-19T07:09:48.935Z,0.14
2022-10-19T07:14:48.988Z,0.14
2022-10-19T07:19:49.075Z,0.16
2022-10-19T07:24:48.942Z,0.15
2022-10-19T07:29:48.912Z,0.16
2022-10-19T07:34:48.919Z,0.2
2022-10-19T07:39:48.951Z,0.26
2022-10-19T07:44:48.946Z,0.33
2022-10-19T07:49:48.915Z,0.28
2022-10-19T07:54:48.949Z,0.27
2022-10-19T07:59:48.935Z,0.26
2022-10-19T08:05:01.025Z,0.26
2022-10-19T08:09:54.375Z,0.21
2022-10-19T08:14:48.929Z,0.23
2022-10-19T08:19:48.907Z,0.21
2022-10-19T08:24:48.921Z,0.2
2022-10-19T08:29:48.951Z,0.24
2022-10-19T08:34:48.930Z,0.26
2022-10-19T08:39:48.953Z,0.28
2022-10-19T08:44:48.947Z,0.28
2022-10-19T08:49:48.938Z,0.26
2022-10-19T08:54:49.054Z,0.36
2022-10-19T08:59:52.111Z,0.33
2022-10-19T09:04:48.978Z,0.3
2022-10-19T09:09:48.942Z,0.32
2022-10-19T09:14:48.956Z,0.22
2022-10-19T09:19:48.972Z,0.22
2022-10-19T09:24:48.941Z,0.13
2022-10-19T09:29:48.916Z,0.11
2022-10-19T09:34:49.018Z,0.18
2022-10-19T09:39:53.902Z,0.23
2022-10-19T09:54:49.176Z,0.3
2022-10-19T09:59:50.230Z,0.27
2022-10-19T10:04:48.928Z,0.21
2022-10-19T10:09:48.982Z,0.24
2022-10-19T10:14:48.935Z,0.29
2022-10-19T10:19:48.965Z,0.26
2022-10-19T10:24:49.012Z,0.23
2022-10-19T10:29:48.998Z,0.24
2022-10-19T10:34:55.898Z,0.26
2022-10-19T10:39:49.988Z,0.21
2022-10-19T10:44:48.998Z,0.21
2022-10-19T10:49:49.072Z,0.17
2022-10-19T10:54:49.033Z,0.21
2022-10-19T10:59:48.956Z,0.2
2022-10-19T11:04:52.253Z,0.22
2022-10-19T11:09:48.953Z,0.24
2022-10-19T11:14:48.936Z,0.2
2022-10-19T11:19:48.945Z,0.5
2022-10-19T11:24:49.966Z,0.54
2022-10-19T11:29:48.982Z,0.38
2022-10-19T11:34:48.942Z,0.4
2022-10-19T11:39:48.999Z,0.57
2022-10-19T11:44:48.974Z,0.31
2022-10-19T11:49:48.971Z,0.71
2022-10-19T11:54:49.015Z,0.43
2022-10-19T11:59:49.021Z,0.35
2022-10-19T12:04:49.029Z,0.3
2022-10-19T12:09:48.968Z,0.28
2022-10-19T12:14:48.976Z,0.27
2022-10-19T12:19:49.050Z,0.28
2022-10-19T12:24:49.000Z,0.3
2022-10-19T12:29:49.041Z,0.27
2022-10-19T12:34:48.999Z,0.3
2022-10-19T12:39:49.013Z,0.42
2022-10-19T12:44:48.991Z,0.33
2022-10-19T12:49:49.033Z,0.29
2022-10-19T12:54:49.041Z,0.39
2022-10-19T12:59:49.087Z,0.36
2022-10-19T13:04:48.972Z,0.19
2022-10-19T13:09:49.005Z,0.17
2022-10-19T13:14:49.169Z,0.21
2022-10-19T13:19:49.124Z,0.21
2022-10-19T13:24:49.156Z,0.2
2022-10-19T13:29:48.997Z,0.2
2022-10-19T13:34:49.099Z,0.2
2022-10-19T13:39:49.127Z,0.2
2022-10-19T13:44:49.034Z,0.21
2022-10-19T13:49:49.053Z,0.22
2022-10-19T13:54:48.992Z,0.22
2022-10-19T13:59:49.055Z,0.2
2022-10-19T14:04:48.959Z,0.15
2022-10-19T14:09:49.058Z,0.14
2022-10-19T14:14:49.010Z,0.16
2022-10-19T14:19:49.047Z,0.18
2022-10-19T14:24:49.116Z,0.18
2022-10-19T14:29:49.031Z,0.18
2022-10-19T14:34:49.021Z,0.17
2022-10-19T14:39:49.005Z,0.12
2022-10-19T14:44:49.075Z,0.17
2022-10-19T14:49:49.010Z,0.16
2022-10-19T14:54:49.080Z,0.15
2022-10-19T14:59:49.000Z,0.14
2022-10-19T15:04:49.052Z,0.13
2022-10-19T15:09:51.021Z,0.11
2022-10-19T15:14:49.043Z,0.11
2022-10-19T15:19:49.061Z,0.1
2022-10-19T15:24:49.076Z,0.11
2022-10-19T15:29:49.044Z,0.9
2022-10-19T15:34:49.052Z,0.8
2022-10-19T15:39:49.120Z,0.8
2022-10-19T15:44:49.050Z,0.6
2022-10-19T15:49:49.274Z,0.6
2022-10-19T15:54:51.729Z,0.5
2022-10-19T15:59:49.060Z,0.5
2022-10-19T16:04:49.084Z,0.4
2022-10-19T16:09:49.063Z,0.3
2022-10-19T16:14:49.035Z,0.4
2022-10-19T16:19:49.078Z,0.2
2022-10-19T16:24:49.075Z,0.2
2022-10-19T16:29:49.071Z,0.2
2022-10-19T16:34:49.153Z,0.1
2022-10-19T16:39:49.042Z,0.2
2022-10-19T16:44:49.099Z,0.1
2022-10-19T16:49:49.091Z,0.2
2022-10-19T16:54:50.486Z,0.2
2022-10-19T16:59:50.108Z,0.1
2022-10-19T17:04:50.198Z,0.2
2022-10-19T17:09:54.803Z,0.1
2022-10-19T17:14:50.059Z,0.2
2022-10-19T17:19:50.059Z,0.2
2022-10-19T17:24:50.040Z,0.2
2022-10-19T17:29:50.062Z,0.2
2022-10-19T17:34:50.050Z,0.3
2022-10-19T17:39:50.060Z,0.2
2022-10-19T17:44:50.039Z,0.2
2022-10-19T17:49:50.031Z,0.1
2022-10-19T17:55:11.986Z,0.1
2022-10-19T17:59:55.367Z,0.1
2022-10-19T18:04:50.164Z,0.1
2022-10-19T18:09:50.064Z,0.2
2022-10-19T18:14:50.092Z,0.2
2022-10-19T18:19:50.041Z,0.3
2022-10-19T18:24:52.921Z,0.2
2022-10-19T18:29:50.133Z,0.2
2022-10-19T18:34:50.105Z,0.1
2022-10-19T18:39:50.096Z,0.2
2022-10-19T18:44:50.232Z,0.1
2022-10-19T18:49:50.134Z,0.3
2022-10-19T18:54:50.146Z,0.2
2022-10-19T18:59:50.088Z,0.2
2022-10-19T19:04:50.023Z,0.2
2022-10-19T19:09:50.158Z,0.2
2022-10-19T19:14:50.106Z,0.2
2022-10-19T19:19:50.085Z,0.2
2022-10-19T19:24:50.225Z,0.2
2022-10-19T19:29:50.124Z,0.2
2022-10-19T19:34:54.810Z,0.1
2022-10-19T19:39:50.111Z,0.2
2022-10-19T19:44:50.052Z,0.1
2022-10-19T19:49:50.226Z,0.2
2022-10-19T19:54:50.227Z,0.2
2022-10-19T19:59:50.195Z,0.2
2022-10-19T20:04:50.122Z,0.2
2022-10-19T20:09:50.132Z,0.2
2022-10-19T20:14:50.273Z,0.2
2022-10-19T20:19:50.144Z,0.1
2022-10-19T20:25:42.345Z,0.1
2022-10-19T20:29:50.236Z,0.2
2022-10-19T20:34:50.147Z,0.2
2022-10-19T20:39:51.112Z,0.3
2022-10-19T20:44:51.436Z,0.2
2022-10-19T20:49:51.111Z,0.2
2022-10-19T20:54:51.104Z,0.2
2022-10-19T20:59:51.136Z,0.2
2022-10-19T21:04:51.822Z,0.2
2022-10-19T21:09:51.414Z,0.3
2022-10-19T21:14:51.077Z,0.3
2022-10-19T21:19:51.425Z,0.2
2022-10-19T21:24:51.079Z,0.2
2022-10-19T21:29:51.793Z,0.2
2022-10-19T21:34:51.824Z,0.2
2022-10-19T21:39:51.181Z,0.2
2022-10-19T21:45:01.045Z,0.2
2022-10-19T21:49:51.174Z,0.2
2022-10-19T21:54:51.135Z,0.2
2022-10-19T21:59:51.139Z,0.1
2022-10-19T22:04:51.194Z,0.2
2022-10-19T22:09:51.147Z,0.2
2022-10-19T22:14:51.185Z,0.2
2022-10-19T22:19:51.125Z,0.3
2022-10-19T22:24:51.126Z,0.2
2022-10-19T22:29:51.152Z,0.2
2022-10-19T22:34:51.134Z,0.1
2022-10-19T22:39:51.279Z,0.1
2022-10-19T22:44:51.150Z,0.2
2022-10-19T22:49:51.267Z,0.2
2022-10-19T22:54:51.286Z,0.2
2022-10-19T22:59:57.388Z,0.2
2022-10-19T23:04:54.374Z,0.2
2022-10-19T23:09:51.679Z,0.2
2022-10-19T23:14:51.680Z,0.2
2022-10-19T23:19:51.256Z,0.2
2022-10-19T23:24:51.191Z,0.2
2022-10-19T23:29:51.125Z,0.1
2022-10-19T23:34:51.165Z,0.3
2022-10-19T23:39:51.180Z,0.2
2022-10-19T23:44:51.178Z,0.2
2022-10-19T23:49:51.174Z,0.2
2022-10-19T23:54:51.214Z,0.2
2022-10-19T23:59:51.200Z,0.2
